createdAt,value
2019-05-07T00:01:06.497Z,63.60
2019-05-07T00:03:37.149Z,63.30
2019-05-07T00:06:07.457Z,62.60
2019-05-07T00:08:37.788Z,62.60
2019-05-07T00:11:08.118Z,63.40
2019-05-07T00:13:44.129Z,65.40
2019-05-07T00:16:13.350Z,65.50
2019-05-07T00:18:44.012Z,65.90
2019-05-07T00:21:15.922Z,66.00
2019-05-07T00:23:46.603Z,67.70
2019-05-07T00:26:18.573Z,67.80
2019-05-07T00:28:49.341Z,68.50
2019-05-07T00:31:23.267Z,68.80
2019-05-07T00:33:54.445Z,69.70
2019-05-07T00:36:29.185Z,69.30
2019-05-07T00:39:16.167Z,68.60
2019-05-07T00:42:07.269Z,70.30
2019-05-07T00:44:39.149Z,70.30
2019-05-07T00:47:13.840Z,72.30
2019-05-07T00:49:45.549Z,71.10
2019-05-07T00:52:15.884Z,71.90
2019-05-07T00:54:46.211Z,71.60
2019-05-07T00:57:16.536Z,73.50
2019-05-07T00:59:47.844Z,74.00
2019-05-07T01:02:32.394Z,74.70
2019-05-07T01:05:06.843Z,73.70
2019-05-07T01:07:37.186Z,72.60
2019-05-07T01:10:10.004Z,73.00
2019-05-07T01:12:42.349Z,73.10
2019-05-07T01:15:12.855Z,73.00
2019-05-07T01:17:44.488Z,73.40
2019-05-07T01:20:14.769Z,72.80
2019-05-07T01:22:45.078Z,73.10
2019-05-07T01:25:15.629Z,72.60
2019-05-07T01:27:48.641Z,71.50
2019-05-07T01:30:24.322Z,70.20
2019-05-07T01:33:02.636Z,69.00
2019-05-07T01:35:34.412Z,68.30
2019-05-07T01:38:06.153Z,67.20
2019-05-07T01:40:36.475Z,67.00
2019-05-07T01:43:11.927Z,68.00
2019-05-07T01:45:49.068Z,66.20
2019-05-07T01:48:17.025Z,66.00
2019-05-07T01:50:47.295Z,64.00
2019-05-07T01:53:17.568Z,62.90
2019-05-07T01:55:47.809Z,62.60
2019-05-07T01:58:18.128Z,62.30
2019-05-07T02:00:53.200Z,61.80
2019-05-07T02:03:41.918Z,60.10
2019-05-07T02:06:13.314Z,58.80
2019-05-07T02:09:03.443Z,61.10
2019-05-07T02:11:36.854Z,60.60
2019-05-07T02:14:07.107Z,60.50
2019-05-07T02:16:37.406Z,61.20
2019-05-07T02:19:12.707Z,61.00
2019-05-07T02:21:43.004Z,62.50
2019-05-07T02:24:13.331Z,63.30
2019-05-07T02:26:45.097Z,63.10
2019-05-07T02:29:15.270Z,63.40
2019-05-07T02:31:45.577Z,63.50
2019-05-07T02:34:15.880Z,62.50
2019-05-07T02:36:47.722Z,64.40
2019-05-07T02:39:19.631Z,63.30
2019-05-07T02:41:49.932Z,63.20
2019-05-07T02:44:23.020Z,64.00
2019-05-07T02:46:53.778Z,62.60
2019-05-07T02:49:44.090Z,61.80
2019-05-07T02:52:23.040Z,62.30
2019-05-07T02:55:04.388Z,62.80
2019-05-07T02:57:34.778Z,63.30
2019-05-07T03:00:06.857Z,63.00
2019-05-07T03:02:37.176Z,62.40
2019-05-07T03:05:07.708Z,65.20
2019-05-07T03:07:38.143Z,64.20
2019-05-07T03:10:08.482Z,62.60
2019-05-07T03:12:38.792Z,61.90
2019-05-07T03:15:09.024Z,64.20
2019-05-07T03:17:39.416Z,64.90
2019-05-07T03:20:15.651Z,64.80
2019-05-07T03:22:45.911Z,64.20
2019-05-07T03:25:23.119Z,65.90
2019-05-07T03:27:53.574Z,63.70
2019-05-07T03:30:26.518Z,64.60
2019-05-07T03:32:59.276Z,63.60
2019-05-07T03:35:36.348Z,63.00
2019-05-07T03:38:04.667Z,64.10
2019-05-07T03:40:36.094Z,64.40
2019-05-07T03:43:07.550Z,65.10
2019-05-07T03:45:45.340Z,64.60
2019-05-07T03:48:24.110Z,63.00
2019-05-07T03:50:54.981Z,64.00
2019-05-07T03:53:25.291Z,63.80
2019-05-07T03:55:55.631Z,64.10
2019-05-07T03:58:25.874Z,61.30
2019-05-07T04:00:56.190Z,62.40
2019-05-07T04:03:26.555Z,61.00
2019-05-07T04:05:56.907Z,62.50
2019-05-07T04:08:27.198Z,62.00
2019-05-07T04:10:57.428Z,61.70
2019-05-07T04:13:27.738Z,62.10
2019-05-07T04:15:57.963Z,62.70
2019-05-07T04:18:28.197Z,62.60
2019-05-07T04:20:59.631Z,63.30
2019-05-07T04:26:33.894Z,63.90
2019-05-07T04:29:06.023Z,62.90
2019-05-07T04:31:38.113Z,62.40
2019-05-07T04:37:03.246Z,64.10
2019-05-07T04:39:33.490Z,65.50
2019-05-07T04:42:03.705Z,66.00
2019-05-07T04:44:33.858Z,64.80
2019-05-07T04:47:04.681Z,66.90
2019-05-07T04:49:53.461Z,68.10
2019-05-07T04:52:27.424Z,67.80
2019-05-07T04:54:57.617Z,65.40
2019-05-07T04:57:27.761Z,65.60
2019-05-07T04:59:58.784Z,68.00
2019-05-07T05:02:37.510Z,68.00
2019-05-07T05:05:07.692Z,67.40
2019-05-07T05:07:37.746Z,67.90
2019-05-07T05:10:08.313Z,68.20
2019-05-07T05:12:38.742Z,69.10
2019-05-07T05:15:09.133Z,68.40
2019-05-07T05:17:50.075Z,68.00
2019-05-07T05:20:13.233Z,68.20
2019-05-07T05:22:45.087Z,68.00
2019-05-07T05:25:33.407Z,68.70
2019-05-07T05:28:05.742Z,68.50
2019-05-07T05:30:42.417Z,68.10
2019-05-07T05:33:13.742Z,68.60
2019-05-07T05:35:43.872Z,68.70
2019-05-07T05:38:13.963Z,68.40
2019-05-07T05:40:44.173Z,68.50
2019-05-07T05:43:24.597Z,68.70
2019-05-07T05:46:04.479Z,69.10
2019-05-07T05:48:34.679Z,69.60
2019-05-07T05:51:12.590Z,67.70
2019-05-07T05:53:45.358Z,67.60
2019-05-07T05:56:18.899Z,67.30
2019-05-07T05:58:52.532Z,67.80
2019-05-07T06:01:42.731Z,68.90
2019-05-07T06:04:26.757Z,69.00
2019-05-07T06:07:11.112Z,69.20
2019-05-07T06:09:52.743Z,69.30
2019-05-07T06:12:33.381Z,68.20
2019-05-07T06:15:22.498Z,67.50
2019-05-07T06:18:02.573Z,66.20
2019-05-07T06:20:42.821Z,66.30
2019-05-07T06:23:32.686Z,65.50
2019-05-07T06:26:05.163Z,64.30
2019-05-07T06:28:35.751Z,64.80
2019-05-07T06:31:05.848Z,65.20
2019-05-07T06:33:38.986Z,64.30
2019-05-07T06:36:09.106Z,64.80
2019-05-07T06:38:50.111Z,65.00
2019-05-07T06:41:37.861Z,64.30
2019-05-07T06:44:09.683Z,62.90
2019-05-07T06:46:41.824Z,62.10
2019-05-07T06:49:12.708Z,61.70
2019-05-07T06:51:42.981Z,62.50
2019-05-07T06:54:13.279Z,62.50
2019-05-07T06:56:43.470Z,61.90
2019-05-07T06:59:18.260Z,60.60
2019-05-07T07:01:49.991Z,60.50
2019-05-07T07:04:27.938Z,60.30
2019-05-07T07:07:01.922Z,59.00
2019-05-07T07:09:52.574Z,59.10
2019-05-07T07:12:27.441Z,59.90
2019-05-07T07:14:58.197Z,59.00
2019-05-07T07:17:32.422Z,58.90
2019-05-07T07:20:04.386Z,59.50
2019-05-07T07:22:34.394Z,58.80
2019-05-07T07:25:06.745Z,57.40
2019-05-07T07:27:36.899Z,56.40
2019-05-07T07:30:32.465Z,56.20
2019-05-07T07:33:03.682Z,54.70
2019-05-07T07:35:33.735Z,54.00
2019-05-07T07:38:05.610Z,54.00
2019-05-07T07:40:43.086Z,53.10
2019-05-07T07:43:13.185Z,53.60
2019-05-07T07:45:43.249Z,52.90
2019-05-07T07:48:13.355Z,53.30
2019-05-07T07:50:46.611Z,53.80
2019-05-07T07:53:15.965Z,53.50
2019-05-07T07:55:47.494Z,51.80
2019-05-07T07:58:32.182Z,52.80
2019-05-07T08:01:07.834Z,50.70
2019-05-07T08:03:38.038Z,53.80
2019-05-07T08:06:12.059Z,52.70
2019-05-07T08:08:43.079Z,51.70
2019-05-07T08:11:15.010Z,51.40
2019-05-07T08:13:45.300Z,52.40
2019-05-07T08:16:15.489Z,52.50
2019-05-07T08:18:47.414Z,51.10
2019-05-07T08:21:17.539Z,51.10
2019-05-07T08:23:48.646Z,50.80
2019-05-07T08:26:18.739Z,51.00
2019-05-07T08:28:48.815Z,50.70
2019-05-07T08:31:38.757Z,51.50
2019-05-07T08:34:23.003Z,51.40
2019-05-07T08:36:53.086Z,51.30
2019-05-07T08:39:25.191Z,52.20
2019-05-07T08:41:55.025Z,51.70
2019-05-07T08:44:38.817Z,50.40
2019-05-07T08:47:13.986Z,51.40
2019-05-07T08:49:44.038Z,48.60
2019-05-07T08:52:14.166Z,48.60
2019-05-07T08:54:44.706Z,48.90
2019-05-07T08:57:14.898Z,50.20
2019-05-07T08:59:57.470Z,50.00
2019-05-07T09:02:16.886Z,48.30
2019-05-07T09:04:47.145Z,48.40
2019-05-07T09:07:21.998Z,48.70
2019-05-07T09:09:52.458Z,49.20
2019-05-07T09:12:23.083Z,48.40
2019-05-07T09:14:53.165Z,48.10
2019-05-07T09:17:23.425Z,50.70
2019-05-07T09:19:55.167Z,50.60
2019-05-07T09:22:25.359Z,50.50
2019-05-07T09:24:55.559Z,47.70
2019-05-07T09:27:42.179Z,49.10
2019-05-07T09:30:15.318Z,48.50
2019-05-07T09:32:52.228Z,49.30
2019-05-07T09:35:32.381Z,50.00
2019-05-07T09:38:03.156Z,49.20
2019-05-07T09:40:34.674Z,49.30
2019-05-07T09:43:04.754Z,49.10
2019-05-07T09:45:34.878Z,49.90
2019-05-07T09:48:05.122Z,48.40
2019-05-07T09:50:35.188Z,48.60
2019-05-07T09:53:05.311Z,49.80
2019-05-07T09:55:35.498Z,49.30
2019-05-07T09:58:05.808Z,49.30
2019-05-07T10:00:37.821Z,47.90
2019-05-07T10:03:08.257Z,46.30
2019-05-07T10:05:42.796Z,45.00
2019-05-07T10:08:13.242Z,45.10
2019-05-07T10:10:46.918Z,45.40
2019-05-07T10:13:42.031Z,45.60
2019-05-07T10:16:16.848Z,45.40
2019-05-07T10:18:47.475Z,45.10
2019-05-07T10:21:22.090Z,44.20
2019-05-07T10:23:54.906Z,43.20
2019-05-07T10:26:25.518Z,44.60
2019-05-07T10:28:56.349Z,43.30
2019-05-07T10:31:26.882Z,44.30
2019-05-07T10:33:57.013Z,44.90
2019-05-07T10:36:29.249Z,43.30
2019-05-07T10:38:59.422Z,43.60
2019-05-07T10:41:31.722Z,42.90
2019-05-07T10:44:02.565Z,43.10
2019-05-07T10:46:34.538Z,44.30
2019-05-07T10:49:16.211Z,44.60
2019-05-07T10:51:46.488Z,42.50
2019-05-07T10:54:21.875Z,42.70
2019-05-07T10:56:53.568Z,41.20
2019-05-07T10:59:23.537Z,43.30
2019-05-07T11:02:12.503Z,42.70
2019-05-07T11:04:43.567Z,44.60
2019-05-07T11:07:13.902Z,44.20
2019-05-07T11:09:44.025Z,44.00
2019-05-07T11:12:14.566Z,44.00
2019-05-07T11:14:44.689Z,44.80
2019-05-07T11:17:16.463Z,44.10
2019-05-07T11:19:46.438Z,43.60
2019-05-07T11:22:16.731Z,43.00
2019-05-07T11:24:46.751Z,42.30
2019-05-07T11:27:22.494Z,41.50
2019-05-07T11:30:12.525Z,42.70
2019-05-07T11:32:43.030Z,43.00
2019-05-07T11:35:17.805Z,44.90
2019-05-07T11:37:51.851Z,45.10
2019-05-07T11:40:22.877Z,43.50
2019-05-07T11:42:58.331Z,43.60
2019-05-07T11:45:36.262Z,44.30
2019-05-07T11:48:08.033Z,43.40
2019-05-07T11:50:45.758Z,43.90
2019-05-07T11:53:17.922Z,44.10
2019-05-07T11:55:52.359Z,44.20
2019-05-07T11:58:22.685Z,43.10
2019-05-07T12:00:57.251Z,43.90
2019-05-07T12:03:27.557Z,43.60
2019-05-07T12:05:58.029Z,44.50
2019-05-07T12:08:40.924Z,44.40
2019-05-07T12:11:02.117Z,44.80
2019-05-07T12:13:34.188Z,44.70
2019-05-07T12:16:06.067Z,44.10
2019-05-07T12:18:36.186Z,43.50
2019-05-07T12:21:18.286Z,43.70
2019-05-07T12:23:38.697Z,42.90
2019-05-07T12:26:12.369Z,42.20
2019-05-07T12:28:42.202Z,43.50
2019-05-07T12:31:13.890Z,45.10
2019-05-07T12:33:45.650Z,45.40
2019-05-07T12:36:16.434Z,45.10
2019-05-07T12:38:46.590Z,43.70
2019-05-07T12:41:34.431Z,43.30
2019-05-07T12:44:06.806Z,41.90
2019-05-07T12:46:38.584Z,41.80
2019-05-07T12:49:08.871Z,42.40
2019-05-07T12:51:42.732Z,42.80
2019-05-07T12:54:26.866Z,40.30
2019-05-07T12:56:57.061Z,40.50
2019-05-07T12:59:27.251Z,40.10
2019-05-07T13:02:26.673Z,40.00
2019-05-07T13:04:45.967Z,40.10
2019-05-07T13:07:24.020Z,41.00
2019-05-07T13:09:55.774Z,40.40
2019-05-07T13:12:25.945Z,38.60
2019-05-07T13:14:57.142Z,39.20
2019-05-07T13:17:27.413Z,38.20
2019-05-07T13:19:57.482Z,39.70
2019-05-07T13:22:27.630Z,38.80
2019-05-07T13:24:57.682Z,36.80
2019-05-07T13:27:29.371Z,36.00
2019-05-07T13:30:02.388Z,36.50
2019-05-07T13:32:34.913Z,35.00
2019-05-07T13:35:07.478Z,35.60
2019-05-07T13:37:41.711Z,35.30
2019-05-07T13:40:31.513Z,36.30
2019-05-07T13:43:16.425Z,37.30
2019-05-07T13:45:49.126Z,36.10
2019-05-07T13:48:22.506Z,36.90
2019-05-07T13:50:53.014Z,36.60
2019-05-07T13:53:23.335Z,36.60
2019-05-07T13:55:53.549Z,36.10
2019-05-07T13:58:32.940Z,36.60
2019-05-07T14:01:09.074Z,37.50
2019-05-07T14:03:39.894Z,36.30
2019-05-07T14:06:12.622Z,36.80
2019-05-07T14:08:43.496Z,36.40
2019-05-07T14:11:13.939Z,35.70
2019-05-07T14:13:44.225Z,33.90
2019-05-07T14:16:14.385Z,35.40
2019-05-07T14:18:44.495Z,34.60
2019-05-07T14:21:14.771Z,34.70
2019-05-07T14:23:45.196Z,36.10
2019-05-07T14:26:15.406Z,35.50
2019-05-07T14:28:45.651Z,35.20
2019-05-07T14:31:15.737Z,34.10
2019-05-07T14:33:47.535Z,33.90
2019-05-07T14:36:22.446Z,35.10
2019-05-07T14:38:54.092Z,33.90
2019-05-07T14:41:25.656Z,34.90
2019-05-07T14:43:58.841Z,35.10
2019-05-07T14:46:44.589Z,36.00
2019-05-07T14:49:02.996Z,34.20
2019-05-07T14:51:33.234Z,34.60
2019-05-07T14:54:04.995Z,34.70
2019-05-07T14:56:39.177Z,36.30
2019-05-07T14:59:12.800Z,37.10
2019-05-07T15:01:43.013Z,36.60
2019-05-07T15:04:13.106Z,35.90
2019-05-07T15:06:46.613Z,36.80
2019-05-07T15:09:16.101Z,35.60
2019-05-07T15:11:46.295Z,35.70
2019-05-07T15:14:16.720Z,37.60
2019-05-07T15:16:47.900Z,36.90
2019-05-07T15:19:18.514Z,35.40
2019-05-07T15:21:54.858Z,36.80
2019-05-07T15:24:25.081Z,38.30
2019-05-07T15:26:56.690Z,36.50
2019-05-07T15:29:28.362Z,36.30
2019-05-07T15:32:04.651Z,36.30
2019-05-07T15:34:34.777Z,36.40
2019-05-07T15:37:06.737Z,37.90
2019-05-07T15:39:39.342Z,38.30
2019-05-07T15:42:09.539Z,37.50
2019-05-07T15:44:39.757Z,38.30
2019-05-07T15:47:11.744Z,38.70
2019-05-07T15:49:42.850Z,39.50
2019-05-07T15:52:18.109Z,38.90
2019-05-07T15:54:49.390Z,39.20
2019-05-07T15:57:27.195Z,38.70
2019-05-07T16:00:04.965Z,38.50
2019-05-07T16:02:45.207Z,39.60
2019-05-07T16:05:15.969Z,40.90
2019-05-07T16:07:47.513Z,38.70
2019-05-07T16:10:19.106Z,39.60
2019-05-07T16:12:53.510Z,39.40
2019-05-07T16:15:25.258Z,38.90
2019-05-07T16:17:59.793Z,39.10
2019-05-07T16:20:35.602Z,40.90
2019-05-07T16:23:14.847Z,40.20
2019-05-07T16:25:48.636Z,40.30
2019-05-07T16:28:27.236Z,41.10
2019-05-07T16:31:02.432Z,42.10
2019-05-07T16:33:34.780Z,41.70
2019-05-07T16:36:03.916Z,41.40
2019-05-07T16:38:37.272Z,41.30
2019-05-07T16:44:05.872Z,42.80
2019-05-07T16:46:37.562Z,41.80
2019-05-07T16:49:26.901Z,41.50
2019-05-07T16:54:59.178Z,42.90
2019-05-07T16:57:47.674Z,44.10
2019-05-07T17:00:24.402Z,43.70
2019-05-07T17:03:03.871Z,44.70
2019-05-07T17:05:34.484Z,44.10
2019-05-07T17:08:06.329Z,44.20
2019-05-07T17:10:39.408Z,44.90
2019-05-07T17:13:10.019Z,46.80
2019-05-07T17:15:57.294Z,45.40
2019-05-07T17:18:26.865Z,46.30
2019-05-07T17:20:58.965Z,44.30
2019-05-07T17:23:43.298Z,45.00
2019-05-07T17:26:07.221Z,45.10
2019-05-07T17:28:53.758Z,45.70
2019-05-07T17:31:23.887Z,45.80
2019-05-07T17:33:54.016Z,45.40
2019-05-07T17:36:25.048Z,45.70
2019-05-07T17:39:02.681Z,45.50
2019-05-07T17:41:35.221Z,45.30
2019-05-07T17:44:05.558Z,45.80
2019-05-07T17:46:37.241Z,45.80
2019-05-07T17:49:16.883Z,46.00
2019-05-07T17:51:47.070Z,49.90
2019-05-07T17:54:17.237Z,52.40
2019-05-07T17:56:47.424Z,53.30
2019-05-07T17:59:17.485Z,54.40
2019-05-07T18:01:50.210Z,55.20
2019-05-07T18:04:20.380Z,55.40
2019-05-07T18:06:52.238Z,55.80
2019-05-07T18:09:22.678Z,55.80
2019-05-07T18:11:53.000Z,55.70
2019-05-07T18:14:24.319Z,56.10
2019-05-07T18:16:59.488Z,56.60
2019-05-07T18:19:32.973Z,56.70
2019-05-07T18:22:03.474Z,57.00
2019-05-07T18:24:34.055Z,57.20
2019-05-07T18:27:06.207Z,56.70
2019-05-07T18:29:36.348Z,56.50
2019-05-07T18:32:07.805Z,57.10
2019-05-07T18:34:58.623Z,57.50
2019-05-07T18:37:28.826Z,57.60
2019-05-07T18:39:58.906Z,57.50
2019-05-07T18:42:29.542Z,57.60
2019-05-07T18:45:02.124Z,57.70
2019-05-07T18:47:40.279Z,58.40
2019-05-07T18:50:33.622Z,58.20
2019-05-07T18:53:22.714Z,58.30
2019-05-07T18:55:56.182Z,58.50
2019-05-07T18:58:28.056Z,58.30
2019-05-07T19:00:59.824Z,58.70
2019-05-07T19:03:42.025Z,58.40
2019-05-07T19:06:15.254Z,58.50
2019-05-07T19:08:52.650Z,58.60
2019-05-07T19:11:24.290Z,58.90
2019-05-07T19:13:56.119Z,59.00
2019-05-07T19:16:26.117Z,58.50
2019-05-07T19:18:56.275Z,58.90
2019-05-07T19:22:04.209Z,59.20
2019-05-07T19:24:44.278Z,59.70
2019-05-07T19:30:44.410Z,59.70
2019-05-07T19:33:14.661Z,59.40
2019-05-07T19:35:46.422Z,59.10
2019-05-07T19:38:21.902Z,59.10
2019-05-07T19:40:56.288Z,59.00
2019-05-07T19:43:28.219Z,59.30
2019-05-07T19:46:00.049Z,59.10
2019-05-07T19:48:32.140Z,59.40
2019-05-07T19:51:03.160Z,58.90
2019-05-07T19:53:33.552Z,58.20
2019-05-07T19:56:05.293Z,57.50
2019-05-07T19:58:35.582Z,57.50
2019-05-07T20:01:07.661Z,57.70
2019-05-07T20:03:38.783Z,57.60
2019-05-07T20:06:12.670Z,57.50
2019-05-07T20:08:44.532Z,58.10
2019-05-07T20:11:25.670Z,57.50
2019-05-07T20:13:55.841Z,57.90
2019-05-07T20:16:28.970Z,57.80
2019-05-07T20:19:03.187Z,57.50
2019-05-07T20:21:33.382Z,56.30
2019-05-07T20:24:03.702Z,56.10
2019-05-07T20:26:33.903Z,56.10
2019-05-07T20:29:06.142Z,55.70
2019-05-07T20:31:37.374Z,56.10
2019-05-07T20:34:09.001Z,56.10
2019-05-07T20:36:39.259Z,55.50
2019-05-07T20:39:12.783Z,56.00
2019-05-07T20:41:44.383Z,56.00
2019-05-07T20:44:14.749Z,55.80
2019-05-07T20:46:44.906Z,55.70
2019-05-07T20:49:15.163Z,56.20
2019-05-07T20:51:45.296Z,55.90
2019-05-07T20:54:17.120Z,56.50
2019-05-07T20:56:48.960Z,56.30
2019-05-07T20:59:19.013Z,57.20
2019-05-07T21:01:52.623Z,57.20
2019-05-07T21:04:22.845Z,56.80
2019-05-07T21:06:52.846Z,56.60
2019-05-07T21:09:23.008Z,56.80
2019-05-07T21:11:53.681Z,57.30
2019-05-07T21:14:23.748Z,56.70
2019-05-07T21:16:53.870Z,57.50
2019-05-07T21:19:23.931Z,57.60
2019-05-07T21:21:54.055Z,57.60
2019-05-07T21:24:24.221Z,57.80
2019-05-07T21:26:54.755Z,58.10
2019-05-07T21:29:24.839Z,58.20
2019-05-07T21:31:56.246Z,58.30
2019-05-07T21:34:26.381Z,58.40
2019-05-07T21:36:56.502Z,58.30
2019-05-07T21:39:27.070Z,58.70
2019-05-07T21:41:57.158Z,58.90
2019-05-07T21:44:28.823Z,59.10
2019-05-07T21:46:58.815Z,59.10
2019-05-07T21:49:28.990Z,59.00
2019-05-07T21:51:59.122Z,58.80
2019-05-07T21:54:43.645Z,58.70
2019-05-07T21:57:15.534Z,58.70
2019-05-07T21:59:46.068Z,58.90
2019-05-07T22:02:19.196Z,58.90
2019-05-07T22:04:49.790Z,59.20
2019-05-07T22:07:20.050Z,59.20
2019-05-07T22:09:52.363Z,59.30
2019-05-07T22:12:22.596Z,59.40
2019-05-07T22:14:54.275Z,59.60
2019-05-07T22:17:27.063Z,59.60
2019-05-07T22:20:02.861Z,59.70
2019-05-07T22:22:34.677Z,59.60
2019-05-07T22:25:07.250Z,59.60
2019-05-07T22:27:38.958Z,59.60
2019-05-07T22:30:12.540Z,60.30
2019-05-07T22:32:47.412Z,59.90
2019-05-07T22:35:19.606Z,60.40
2019-05-07T22:38:08.149Z,59.90
2019-05-07T22:40:39.776Z,60.80
2019-05-07T22:43:12.960Z,60.80
2019-05-07T22:45:43.214Z,61.00
2019-05-07T22:48:16.478Z,61.40
2019-05-07T22:50:46.525Z,61.70
2019-05-07T22:53:17.956Z,61.90
2019-05-07T22:55:49.660Z,62.20
2019-05-07T22:58:26.317Z,62.10
2019-05-07T23:00:58.063Z,62.40
2019-05-07T23:03:28.183Z,62.70
2019-05-07T23:05:59.890Z,62.90
2019-05-07T23:08:30.010Z,62.90
2019-05-07T23:11:00.079Z,62.90
2019-05-07T23:13:31.878Z,62.40
2019-05-07T23:16:02.682Z,62.20
2019-05-07T23:18:33.762Z,62.20
2019-05-07T23:21:03.988Z,62.40
2019-05-07T23:23:35.857Z,63.30
2019-05-07T23:26:06.079Z,63.60
2019-05-07T23:28:36.200Z,64.20
2019-05-07T23:31:06.429Z,64.10
2019-05-07T23:33:36.518Z,64.10
2019-05-07T23:36:06.581Z,63.20
2019-05-07T23:38:36.692Z,63.70
2019-05-07T23:41:25.637Z,64.00
2019-05-07T23:44:14.873Z,64.60
2019-05-07T23:46:45.217Z,65.10
2019-05-07T23:49:15.559Z,64.90
2019-05-07T23:51:45.714Z,64.20
2019-05-07T23:54:15.838Z,64.20
2019-05-07T23:57:01.813Z,65.20
2019-05-07T23:59:21.997Z,65.80
